sensor_id;sensor_type;location;lat;lon;timestamp;temperature;humidity
53776;DHT22;44276;49.534;6.378;2022-12-17T00:01:32;-9.30;99.90
53776;DHT22;44276;49.534;6.378;2022-12-17T00:04:20;-9.20;99.90
53776;DHT22;44276;49.534;6.378;2022-12-17T00:07:06;-9.20;99.90
53776;DHT22;44276;49.534;6.378;2022-12-17T00:09:52;-9.20;99.90
53776;DHT22;44276;49.534;6.378;2022-12-17T00:12:38;-9.20;99.90
53776;DHT22;44276;49.534;6.378;2022-12-17T00:15:24;-9.00;99.90
53776;DHT22;44276;49.534;6.378;2022-12-17T00:18:09;-8.80;99.90
53776;DHT22;44276;49.534;6.378;2022-12-17T00:20:58;-8.90;99.90
53776;DHT22;44276;49.534;6.378;2022-12-17T00:23:45;-9.10;99.90
53776;DHT22;44276;49.534;6.378;2022-12-17T00:26:32;-9.50;99.90
53776;DHT22;44276;49.534;6.378;2022-12-17T00:29:18;-9.70;99.90
53776;DHT22;44276;49.534;6.378;2022-12-17T00:32:04;-9.60;99.90
53776;DHT22;44276;49.534;6.378;2022-12-17T00:34:50;-9.50;99.90
53776;DHT22;44276;49.534;6.378;2022-12-17T00:37:37;-9.30;99.90
53776;DHT22;44276;49.534;6.378;2022-12-17T00:40:23;-9.10;99.90
53776;DHT22;44276;49.534;6.378;2022-12-17T00:43:11;-9.10;99.90
53776;DHT22;44276;49.534;6.378;2022-12-17T00:45:58;-9.20;99.90
53776;DHT22;44276;49.534;6.378;2022-12-17T00:48:44;-9.40;99.90
53776;DHT22;44276;49.534;6.378;2022-12-17T00:51:30;-9.70;99.90
53776;DHT22;44276;49.534;6.378;2022-12-17T00:54:17;-9.90;99.90
53776;DHT22;44276;49.534;6.378;2022-12-17T00:57:03;-9.70;99.90
53776;DHT22;44276;49.534;6.378;2022-12-17T00:59:48;-9.80;99.90
53776;DHT22;44276;49.534;6.378;2022-12-17T01:02:34;-9.70;99.90
53776;DHT22;44276;49.534;6.378;2022-12-17T01:05:22;-9.70;99.90
53776;DHT22;44276;49.534;6.378;2022-12-17T01:08:07;-9.70;99.90
53776;DHT22;44276;49.534;6.378;2022-12-17T01:11:06;-9.80;99.90
53776;DHT22;44276;49.534;6.378;2022-12-17T01:13:53;-9.80;99.90
53776;DHT22;44276;49.534;6.378;2022-12-17T01:16:38;-9.80;99.90
53776;DHT22;44276;49.534;6.378;2022-12-17T01:19:24;-9.80;99.90
53776;DHT22;44276;49.534;6.378;2022-12-17T01:22:10;-9.70;99.90
53776;DHT22;44276;49.534;6.378;2022-12-17T01:24:56;-9.70;99.90
53776;DHT22;44276;49.534;6.378;2022-12-17T01:27:46;-9.70;99.90
53776;DHT22;44276;49.534;6.378;2022-12-17T01:30:35;-9.70;99.90
53776;DHT22;44276;49.534;6.378;2022-12-17T01:33:21;-9.80;99.90
53776;DHT22;44276;49.534;6.378;2022-12-17T01:36:07;-9.80;99.90
53776;DHT22;44276;49.534;6.378;2022-12-17T01:38:54;-9.70;99.90
53776;DHT22;44276;49.534;6.378;2022-12-17T01:41:51;-9.60;99.90
53776;DHT22;44276;49.534;6.378;2022-12-17T01:44:50;-9.40;99.90
53776;DHT22;44276;49.534;6.378;2022-12-17T01:47:39;-9.50;99.90
53776;DHT22;44276;49.534;6.378;2022-12-17T01:50:32;-9.40;99.90
53776;DHT22;44276;49.534;6.378;2022-12-17T01:53:23;-9.50;99.90
53776;DHT22;44276;49.534;6.378;2022-12-17T01:56:12;-9.40;99.90
53776;DHT22;44276;49.534;6.378;2022-12-17T01:58:58;-9.30;99.90
53776;DHT22;44276;49.534;6.378;2022-12-17T02:01:45;-9.20;99.90
53776;DHT22;44276;49.534;6.378;2022-12-17T02:04:31;-8.90;99.90
53776;DHT22;44276;49.534;6.378;2022-12-17T02:07:26;-8.90;99.90
53776;DHT22;44276;49.534;6.378;2022-12-17T02:10:23;-8.80;99.90
53776;DHT22;44276;49.534;6.378;2022-12-17T02:13:22;-8.70;99.90
53776;DHT22;44276;49.534;6.378;2022-12-17T02:16:42;-8.70;99.90
53776;DHT22;44276;49.534;6.378;2022-12-17T02:19:41;-8.80;99.90
53776;DHT22;44276;49.534;6.378;2022-12-17T02:22:39;-8.80;99.90
53776;DHT22;44276;49.534;6.378;2022-12-17T02:25:41;-8.90;99.90
53776;DHT22;44276;49.534;6.378;2022-12-17T02:28:34;-8.90;99.90
53776;DHT22;44276;49.534;6.378;2022-12-17T02:31:23;-8.90;99.90
53776;DHT22;44276;49.534;6.378;2022-12-17T02:34:11;-9.00;99.90
53776;DHT22;44276;49.534;6.378;2022-12-17T02:36:53;-9.10;99.90
53776;DHT22;44276;49.534;6.378;2022-12-17T02:39:38;-9.30;99.90
53776;DHT22;44276;49.534;6.378;2022-12-17T02:42:25;-9.40;99.90
53776;DHT22;44276;49.534;6.378;2022-12-17T02:45:15;-9.50;99.90
53776;DHT22;44276;49.534;6.378;2022-12-17T02:48:03;-9.60;99.90
53776;DHT22;44276;49.534;6.378;2022-12-17T02:50:50;-9.70;99.90
53776;DHT22;44276;49.534;6.378;2022-12-17T02:53:41;-9.80;99.90
53776;DHT22;44276;49.534;6.378;2022-12-17T02:56:27;-9.80;99.90
53776;DHT22;44276;49.534;6.378;2022-12-17T02:59:13;-9.80;99.90
53776;DHT22;44276;49.534;6.378;2022-12-17T03:02:01;-9.80;99.90
53776;DHT22;44276;49.534;6.378;2022-12-17T03:04:55;-9.80;99.90
53776;DHT22;44276;49.534;6.378;2022-12-17T03:08:11;-9.80;99.90
53776;DHT22;44276;49.534;6.378;2022-12-17T03:10:57;-9.90;99.90
53776;DHT22;44276;49.534;6.378;2022-12-17T03:13:48;-9.90;99.90
53776;DHT22;44276;49.534;6.378;2022-12-17T03:16:34;-9.80;99.90
53776;DHT22;44276;49.534;6.378;2022-12-17T03:19:21;-9.70;99.90
53776;DHT22;44276;49.534;6.378;2022-12-17T03:22:07;-9.50;99.90
53776;DHT22;44276;49.534;6.378;2022-12-17T03:24:52;-9.40;99.90
53776;DHT22;44276;49.534;6.378;2022-12-17T03:27:38;-9.20;99.90
53776;DHT22;44276;49.534;6.378;2022-12-17T03:30:24;-9.10;99.90
53776;DHT22;44276;49.534;6.378;2022-12-17T03:33:14;-9.10;99.90
53776;DHT22;44276;49.534;6.378;2022-12-17T03:36:03;-8.90;99.90
53776;DHT22;44276;49.534;6.378;2022-12-17T03:38:49;-8.60;99.90
53776;DHT22;44276;49.534;6.378;2022-12-17T03:41:35;-8.40;99.90
53776;DHT22;44276;49.534;6.378;2022-12-17T03:44:20;-8.40;99.90
53776;DHT22;44276;49.534;6.378;2022-12-17T03:47:06;-8.40;99.90
53776;DHT22;44276;49.534;6.378;2022-12-17T03:49:52;-8.30;99.90
53776;DHT22;44276;49.534;6.378;2022-12-17T03:52:50;-8.20;99.90
53776;DHT22;44276;49.534;6.378;2022-12-17T03:55:36;-8.10;99.90
53776;DHT22;44276;49.534;6.378;2022-12-17T03:58:22;-8.00;99.90
53776;DHT22;44276;49.534;6.378;2022-12-17T04:01:08;-7.90;99.90
53776;DHT22;44276;49.534;6.378;2022-12-17T04:03:54;-8.00;99.90
53776;DHT22;44276;49.534;6.378;2022-12-17T04:06:40;-8.10;99.90
53776;DHT22;44276;49.534;6.378;2022-12-17T04:09:27;-8.00;99.90
53776;DHT22;44276;49.534;6.378;2022-12-17T04:12:13;-7.90;99.90
53776;DHT22;44276;49.534;6.378;2022-12-17T04:14:58;-7.70;99.90
53776;DHT22;44276;49.534;6.378;2022-12-17T04:17:44;-7.70;99.90
53776;DHT22;44276;49.534;6.378;2022-12-17T04:20:30;-7.70;99.90
53776;DHT22;44276;49.534;6.378;2022-12-17T04:23:16;-7.70;99.90
53776;DHT22;44276;49.534;6.378;2022-12-17T04:26:03;-7.80;99.90
53776;DHT22;44276;49.534;6.378;2022-12-17T04:28:49;-7.80;99.90
53776;DHT22;44276;49.534;6.378;2022-12-17T04:31:35;-7.60;99.90
53776;DHT22;44276;49.534;6.378;2022-12-17T04:34:20;-7.50;99.90
53776;DHT22;44276;49.534;6.378;2022-12-17T04:37:06;-7.40;99.90
53776;DHT22;44276;49.534;6.378;2022-12-17T04:39:52;-7.30;99.90
53776;DHT22;44276;49.534;6.378;2022-12-17T04:42:39;-7.30;99.90
53776;DHT22;44276;49.534;6.378;2022-12-17T04:45:25;-7.20;99.90
53776;DHT22;44276;49.534;6.378;2022-12-17T04:48:10;-7.20;99.90
53776;DHT22;44276;49.534;6.378;2022-12-17T04:50:56;-7.20;99.90
53776;DHT22;44276;49.534;6.378;2022-12-17T04:53:42;-7.10;99.90
53776;DHT22;44276;49.534;6.378;2022-12-17T04:56:28;-7.10;99.90
53776;DHT22;44276;49.534;6.378;2022-12-17T04:59:15;-7.10;99.90
53776;DHT22;44276;49.534;6.378;2022-12-17T05:02:00;-7.10;99.90
53776;DHT22;44276;49.534;6.378;2022-12-17T05:04:47;-7.10;99.90
53776;DHT22;44276;49.534;6.378;2022-12-17T05:07:32;-7.10;99.90
53776;DHT22;44276;49.534;6.378;2022-12-17T05:10:18;-7.10;99.90
53776;DHT22;44276;49.534;6.378;2022-12-17T05:13:04;-7.10;99.90
53776;DHT22;44276;49.534;6.378;2022-12-17T05:15:56;-7.10;99.90
53776;DHT22;44276;49.534;6.378;2022-12-17T05:18:42;-7.10;99.90
53776;DHT22;44276;49.534;6.378;2022-12-17T05:21:28;-7.00;99.90
53776;DHT22;44276;49.534;6.378;2022-12-17T05:24:14;-7.00;99.90
53776;DHT22;44276;49.534;6.378;2022-12-17T05:26:59;-7.00;99.90
53776;DHT22;44276;49.534;6.378;2022-12-17T05:29:45;-7.00;99.90
53776;DHT22;44276;49.534;6.378;2022-12-17T05:32:32;-7.00;99.90
53776;DHT22;44276;49.534;6.378;2022-12-17T05:35:47;-7.00;99.90
53776;DHT22;44276;49.534;6.378;2022-12-17T05:38:56;-7.00;99.90
53776;DHT22;44276;49.534;6.378;2022-12-17T05:41:41;-7.00;99.90
53776;DHT22;44276;49.534;6.378;2022-12-17T05:44:27;-7.10;99.90
53776;DHT22;44276;49.534;6.378;2022-12-17T05:47:12;-7.20;99.90
53776;DHT22;44276;49.534;6.378;2022-12-17T05:50:00;-7.30;99.90
53776;DHT22;44276;49.534;6.378;2022-12-17T05:52:45;-7.30;99.90
53776;DHT22;44276;49.534;6.378;2022-12-17T05:55:31;-7.30;99.90
53776;DHT22;44276;49.534;6.378;2022-12-17T05:58:17;-7.30;99.90
53776;DHT22;44276;49.534;6.378;2022-12-17T06:01:03;-7.30;99.90
53776;DHT22;44276;49.534;6.378;2022-12-17T06:03:50;-7.20;99.90
53776;DHT22;44276;49.534;6.378;2022-12-17T06:06:38;-7.20;99.90
53776;DHT22;44276;49.534;6.378;2022-12-17T06:09:23;-7.30;99.90
53776;DHT22;44276;49.534;6.378;2022-12-17T06:12:09;-7.30;99.90
53776;DHT22;44276;49.534;6.378;2022-12-17T06:14:55;-7.30;99.90
53776;DHT22;44276;49.534;6.378;2022-12-17T06:17:40;-7.30;99.90
53776;DHT22;44276;49.534;6.378;2022-12-17T06:20:26;-7.40;99.90
53776;DHT22;44276;49.534;6.378;2022-12-17T06:23:13;-7.40;99.90
53776;DHT22;44276;49.534;6.378;2022-12-17T06:25:59;-7.40;99.90
53776;DHT22;44276;49.534;6.378;2022-12-17T06:28:44;-7.50;99.90
53776;DHT22;44276;49.534;6.378;2022-12-17T06:31:30;-7.50;99.90
53776;DHT22;44276;49.534;6.378;2022-12-17T06:34:16;-7.70;99.90
53776;DHT22;44276;49.534;6.378;2022-12-17T06:37:02;-7.70;99.90
53776;DHT22;44276;49.534;6.378;2022-12-17T06:39:49;-7.70;99.90
53776;DHT22;44276;49.534;6.378;2022-12-17T06:42:35;-7.70;99.90
53776;DHT22;44276;49.534;6.378;2022-12-17T06:45:20;-7.80;99.90
53776;DHT22;44276;49.534;6.378;2022-12-17T06:48:07;-7.80;99.90
53776;DHT22;44276;49.534;6.378;2022-12-17T06:50:53;-7.80;99.90
53776;DHT22;44276;49.534;6.378;2022-12-17T06:53:40;-7.70;99.90
53776;DHT22;44276;49.534;6.378;2022-12-17T06:56:27;-7.60;99.90
53776;DHT22;44276;49.534;6.378;2022-12-17T06:59:13;-7.70;99.90
53776;DHT22;44276;49.534;6.378;2022-12-17T07:01:59;-7.70;99.90
53776;DHT22;44276;49.534;6.378;2022-12-17T07:04:45;-7.60;99.90
53776;DHT22;44276;49.534;6.378;2022-12-17T07:07:30;-7.60;99.90
53776;DHT22;44276;49.534;6.378;2022-12-17T07:10:16;-7.60;99.90
53776;DHT22;44276;49.534;6.378;2022-12-17T07:13:07;-7.60;99.90
53776;DHT22;44276;49.534;6.378;2022-12-17T07:15:53;-7.50;99.90
53776;DHT22;44276;49.534;6.378;2022-12-17T07:18:39;-7.50;99.90
53776;DHT22;44276;49.534;6.378;2022-12-17T07:21:25;-7.50;99.90
53776;DHT22;44276;49.534;6.378;2022-12-17T07:24:11;-7.40;99.90
53776;DHT22;44276;49.534;6.378;2022-12-17T07:26:57;-7.40;99.90
53776;DHT22;44276;49.534;6.378;2022-12-17T07:29:44;-7.30;99.90
53776;DHT22;44276;49.534;6.378;2022-12-17T07:32:30;-7.30;99.90
53776;DHT22;44276;49.534;6.378;2022-12-17T07:35:30;-7.30;99.90
53776;DHT22;44276;49.534;6.378;2022-12-17T07:38:16;-7.30;99.90
53776;DHT22;44276;49.534;6.378;2022-12-17T07:41:01;-7.30;99.90
53776;DHT22;44276;49.534;6.378;2022-12-17T07:43:47;-7.30;99.90
53776;DHT22;44276;49.534;6.378;2022-12-17T07:46:35;-7.30;99.90
53776;DHT22;44276;49.534;6.378;2022-12-17T07:49:20;-7.20;99.90
53776;DHT22;44276;49.534;6.378;2022-12-17T07:52:06;-7.20;99.90
53776;DHT22;44276;49.534;6.378;2022-12-17T07:54:52;-7.20;99.90
53776;DHT22;44276;49.534;6.378;2022-12-17T07:57:43;-7.20;99.90
53776;DHT22;44276;49.534;6.378;2022-12-17T08:00:34;-7.10;99.90
53776;DHT22;44276;49.534;6.378;2022-12-17T08:03:21;-7.10;99.90
53776;DHT22;44276;49.534;6.378;2022-12-17T08:06:08;-7.00;99.90
53776;DHT22;44276;49.534;6.378;2022-12-17T08:08:54;-7.00;99.90
53776;DHT22;44276;49.534;6.378;2022-12-17T08:11:40;-6.90;99.90
53776;DHT22;44276;49.534;6.378;2022-12-17T08:14:26;-6.90;99.90
53776;DHT22;44276;49.534;6.378;2022-12-17T08:17:12;-6.90;99.90
53776;DHT22;44276;49.534;6.378;2022-12-17T08:20:00;-6.80;99.90
53776;DHT22;44276;49.534;6.378;2022-12-17T08:22:47;-6.80;99.90
53776;DHT22;44276;49.534;6.378;2022-12-17T08:25:33;-6.80;99.90
53776;DHT22;44276;49.534;6.378;2022-12-17T08:28:19;-6.80;99.90
53776;DHT22;44276;49.534;6.378;2022-12-17T08:31:17;-6.70;99.90
53776;DHT22;44276;49.534;6.378;2022-12-17T08:34:04;-6.60;99.90
53776;DHT22;44276;49.534;6.378;2022-12-17T08:36:51;-6.60;99.90
53776;DHT22;44276;49.534;6.378;2022-12-17T08:39:37;-6.50;99.90
53776;DHT22;44276;49.534;6.378;2022-12-17T08:42:23;-6.40;99.90
53776;DHT22;44276;49.534;6.378;2022-12-17T08:45:13;-6.40;99.90
53776;DHT22;44276;49.534;6.378;2022-12-17T08:48:03;-6.30;99.90
53776;DHT22;44276;49.534;6.378;2022-12-17T08:50:50;-6.20;99.90
53776;DHT22;44276;49.534;6.378;2022-12-17T08:53:37;-6.10;99.90
53776;DHT22;44276;49.534;6.378;2022-12-17T08:56:23;-6.00;99.90
53776;DHT22;44276;49.534;6.378;2022-12-17T08:59:11;-6.10;99.90
53776;DHT22;44276;49.534;6.378;2022-12-17T09:01:56;-6.20;99.90
53776;DHT22;44276;49.534;6.378;2022-12-17T09:04:43;-6.20;99.90
53776;DHT22;44276;49.534;6.378;2022-12-17T09:07:28;-6.20;99.90
53776;DHT22;44276;49.534;6.378;2022-12-17T09:10:16;-6.20;99.90
53776;DHT22;44276;49.534;6.378;2022-12-17T09:13:02;-6.20;99.90
53776;DHT22;44276;49.534;6.378;2022-12-17T09:15:52;-6.10;99.90
53776;DHT22;44276;49.534;6.378;2022-12-17T09:18:38;-5.90;99.90
53776;DHT22;44276;49.534;6.378;2022-12-17T09:21:26;-5.80;99.90
53776;DHT22;44276;49.534;6.378;2022-12-17T09:24:13;-5.70;99.90
53776;DHT22;44276;49.534;6.378;2022-12-17T09:27:01;-5.50;99.90
53776;DHT22;44276;49.534;6.378;2022-12-17T09:29:46;-5.40;99.90
53776;DHT22;44276;49.534;6.378;2022-12-17T09:32:32;-5.40;99.90
53776;DHT22;44276;49.534;6.378;2022-12-17T09:35:18;-5.40;99.90
53776;DHT22;44276;49.534;6.378;2022-12-17T09:38:10;-5.40;99.90
53776;DHT22;44276;49.534;6.378;2022-12-17T09:41:01;-5.50;99.90
53776;DHT22;44276;49.534;6.378;2022-12-17T09:44:03;-5.50;99.90
53776;DHT22;44276;49.534;6.378;2022-12-17T09:46:58;-5.30;99.90
53776;DHT22;44276;49.534;6.378;2022-12-17T09:49:48;-5.00;99.90
53776;DHT22;44276;49.534;6.378;2022-12-17T09:52:37;-4.90;99.90
53776;DHT22;44276;49.534;6.378;2022-12-17T09:55:27;-4.80;99.90
53776;DHT22;44276;49.534;6.378;2022-12-17T09:58:19;-4.80;99.90
53776;DHT22;44276;49.534;6.378;2022-12-17T10:01:14;-4.60;99.90
53776;DHT22;44276;49.534;6.378;2022-12-17T10:04:03;-4.70;99.90
53776;DHT22;44276;49.534;6.378;2022-12-17T10:06:51;-4.70;99.90
53776;DHT22;44276;49.534;6.378;2022-12-17T10:09:37;-4.70;99.90
53776;DHT22;44276;49.534;6.378;2022-12-17T10:12:23;-4.60;99.90
53776;DHT22;44276;49.534;6.378;2022-12-17T10:15:13;-4.70;99.90
53776;DHT22;44276;49.534;6.378;2022-12-17T10:18:04;-4.60;99.90
53776;DHT22;44276;49.534;6.378;2022-12-17T10:21:05;-4.60;99.90
53776;DHT22;44276;49.534;6.378;2022-12-17T10:24:03;-4.60;99.90
53776;DHT22;44276;49.534;6.378;2022-12-17T10:26:49;-4.60;99.90
53776;DHT22;44276;49.534;6.378;2022-12-17T10:29:36;-4.40;99.90
53776;DHT22;44276;49.534;6.378;2022-12-17T10:32:26;-4.10;99.90
53776;DHT22;44276;49.534;6.378;2022-12-17T10:35:17;-4.00;99.90
53776;DHT22;44276;49.534;6.378;2022-12-17T10:38:11;-4.00;99.90
53776;DHT22;44276;49.534;6.378;2022-12-17T10:41:03;-4.00;99.90
53776;DHT22;44276;49.534;6.378;2022-12-17T10:43:52;-3.90;99.90
53776;DHT22;44276;49.534;6.378;2022-12-17T10:46:38;-3.80;99.90
53776;DHT22;44276;49.534;6.378;2022-12-17T10:49:32;-3.70;99.90
53776;DHT22;44276;49.534;6.378;2022-12-17T10:52:25;-3.70;99.90
53776;DHT22;44276;49.534;6.378;2022-12-17T10:55:19;-3.60;99.90
53776;DHT22;44276;49.534;6.378;2022-12-17T10:58:12;-3.40;99.90
53776;DHT22;44276;49.534;6.378;2022-12-17T11:01:00;-3.30;99.90
53776;DHT22;44276;49.534;6.378;2022-12-17T11:03:49;-3.00;99.90
53776;DHT22;44276;49.534;6.378;2022-12-17T11:06:38;-3.00;99.90
53776;DHT22;44276;49.534;6.378;2022-12-17T11:09:38;-2.90;99.90
53776;DHT22;44276;49.534;6.378;2022-12-17T11:12:38;-2.80;99.90
53776;DHT22;44276;49.534;6.378;2022-12-17T11:15:35;-2.80;99.90
53776;DHT22;44276;49.534;6.378;2022-12-17T11:18:27;-2.80;99.90
53776;DHT22;44276;49.534;6.378;2022-12-17T11:21:20;-2.70;99.90
53776;DHT22;44276;49.534;6.378;2022-12-17T11:24:13;-2.40;99.90
53776;DHT22;44276;49.534;6.378;2022-12-17T11:27:07;-2.20;99.90
53776;DHT22;44276;49.534;6.378;2022-12-17T11:29:59;-2.40;99.90
53776;DHT22;44276;49.534;6.378;2022-12-17T11:32:56;-2.40;99.90
53776;DHT22;44276;49.534;6.378;2022-12-17T11:35:55;-2.30;99.90
53776;DHT22;44276;49.534;6.378;2022-12-17T11:38:59;-1.70;99.90
53776;DHT22;44276;49.534;6.378;2022-12-17T11:41:56;-1.20;99.90
53776;DHT22;44276;49.534;6.378;2022-12-17T11:44:54;-0.80;95.00
53776;DHT22;44276;49.534;6.378;2022-12-17T11:47:52;-1.10;91.80
53776;DHT22;44276;49.534;6.378;2022-12-17T11:50:46;-1.30;96.10
53776;DHT22;44276;49.534;6.378;2022-12-17T11:53:46;-1.40;94.90
53776;DHT22;44276;49.534;6.378;2022-12-17T11:56:44;-1.70;99.90
53776;DHT22;44276;49.534;6.378;2022-12-17T11:59:56;-1.80;93.60
53776;DHT22;44276;49.534;6.378;2022-12-17T12:02:57;-1.90;99.90
53776;DHT22;44276;49.534;6.378;2022-12-17T12:05:57;-1.90;97.80
53776;DHT22;44276;49.534;6.378;2022-12-17T12:08:51;-2.00;99.90
53776;DHT22;44276;49.534;6.378;2022-12-17T12:11:52;-1.90;99.90
53776;DHT22;44276;49.534;6.378;2022-12-17T12:14:51;-1.60;98.00
53776;DHT22;44276;49.534;6.378;2022-12-17T12:17:47;-1.30;95.70
53776;DHT22;44276;49.534;6.378;2022-12-17T12:20:52;-1.20;80.70
53776;DHT22;44276;49.534;6.378;2022-12-17T12:24:06;-1.40;92.10
53776;DHT22;44276;49.534;6.378;2022-12-17T12:27:24;-1.60;92.00
53776;DHT22;44276;49.534;6.378;2022-12-17T12:30:19;-1.80;98.60
53776;DHT22;44276;49.534;6.378;2022-12-17T12:33:17;-2.20;99.90
53776;DHT22;44276;49.534;6.378;2022-12-17T12:36:11;-2.50;99.90
53776;DHT22;44276;49.534;6.378;2022-12-17T12:39:01;-2.70;99.90
53776;DHT22;44276;49.534;6.378;2022-12-17T12:41:50;-3.00;99.90
53776;DHT22;44276;49.534;6.378;2022-12-17T12:44:47;-3.00;99.90
53776;DHT22;44276;49.534;6.378;2022-12-17T12:47:42;-3.00;99.90
53776;DHT22;44276;49.534;6.378;2022-12-17T12:50:49;-3.00;99.90
53776;DHT22;44276;49.534;6.378;2022-12-17T12:53:55;-3.00;99.90
53776;DHT22;44276;49.534;6.378;2022-12-17T12:56:41;-2.90;99.90
53776;DHT22;44276;49.534;6.378;2022-12-17T12:59:28;-2.80;99.90
53776;DHT22;44276;49.534;6.378;2022-12-17T13:02:25;-2.90;99.90
53776;DHT22;44276;49.534;6.378;2022-12-17T13:05:25;-3.00;99.90
53776;DHT22;44276;49.534;6.378;2022-12-17T13:08:17;-3.10;99.90
53776;DHT22;44276;49.534;6.378;2022-12-17T13:10:47;-3.20;99.90
53776;DHT22;44276;49.534;6.378;2022-12-17T13:13:26;-3.00;99.90
53776;DHT22;44276;49.534;6.378;2022-12-17T13:16:14;-2.80;99.90
53776;DHT22;44276;49.534;6.378;2022-12-17T13:19:01;-2.70;99.90
53776;DHT22;44276;49.534;6.378;2022-12-17T13:21:44;-2.60;99.90
53776;DHT22;44276;49.534;6.378;2022-12-17T13:24:22;-2.50;99.90
53776;DHT22;44276;49.534;6.378;2022-12-17T13:26:53;-2.40;99.90
53776;DHT22;44276;49.534;6.378;2022-12-17T13:29:26;-2.40;99.90
53776;DHT22;44276;49.534;6.378;2022-12-17T13:32:14;-2.40;99.90
53776;DHT22;44276;49.534;6.378;2022-12-17T13:34:58;-2.40;99.90
53776;DHT22;44276;49.534;6.378;2022-12-17T13:37:44;-2.50;99.90
53776;DHT22;44276;49.534;6.378;2022-12-17T13:40:33;-2.50;99.90
53776;DHT22;44276;49.534;6.378;2022-12-17T13:43:20;-2.60;99.90
53776;DHT22;44276;49.534;6.378;2022-12-17T13:45:51;-2.80;99.90
53776;DHT22;44276;49.534;6.378;2022-12-17T13:48:24;-2.90;99.90
53776;DHT22;44276;49.534;6.378;2022-12-17T13:50:54;-3.10;99.90
53776;DHT22;44276;49.534;6.378;2022-12-17T13:53:27;-3.10;99.90
53776;DHT22;44276;49.534;6.378;2022-12-17T13:56:00;-3.20;99.90
53776;DHT22;44276;49.534;6.378;2022-12-17T13:58:30;-3.10;99.90
53776;DHT22;44276;49.534;6.378;2022-12-17T14:01:04;-3.10;99.90
53776;DHT22;44276;49.534;6.378;2022-12-17T14:03:34;-3.10;99.90
53776;DHT22;44276;49.534;6.378;2022-12-17T14:06:24;-3.10;99.90
53776;DHT22;44276;49.534;6.378;2022-12-17T14:08:57;-3.20;99.90
53776;DHT22;44276;49.534;6.378;2022-12-17T14:11:26;-3.20;99.90
53776;DHT22;44276;49.534;6.378;2022-12-17T14:14:18;-3.10;99.90
53776;DHT22;44276;49.534;6.378;2022-12-17T14:16:53;-3.10;99.90
53776;DHT22;44276;49.534;6.378;2022-12-17T14:19:25;-3.10;99.90
53776;DHT22;44276;49.534;6.378;2022-12-17T14:21:55;-3.10;99.90
53776;DHT22;44276;49.534;6.378;2022-12-17T14:24:26;-3.10;99.90
53776;DHT22;44276;49.534;6.378;2022-12-17T14:26:57;-3.10;99.90
53776;DHT22;44276;49.534;6.378;2022-12-17T14:29:28;-3.20;99.90
53776;DHT22;44276;49.534;6.378;2022-12-17T14:32:00;-3.20;99.90
53776;DHT22;44276;49.534;6.378;2022-12-17T14:34:39;-3.20;99.90
53776;DHT22;44276;49.534;6.378;2022-12-17T14:37:16;-3.20;99.90
53776;DHT22;44276;49.534;6.378;2022-12-17T14:39:50;-3.30;99.90
53776;DHT22;44276;49.534;6.378;2022-12-17T14:42:23;-3.30;99.90
53776;DHT22;44276;49.534;6.378;2022-12-17T14:44:58;-3.40;99.90
53776;DHT22;44276;49.534;6.378;2022-12-17T14:47:29;-3.50;99.90
53776;DHT22;44276;49.534;6.378;2022-12-17T14:50:02;-3.50;99.90
53776;DHT22;44276;49.534;6.378;2022-12-17T14:52:39;-3.60;99.90
53776;DHT22;44276;49.534;6.378;2022-12-17T14:55:29;-3.70;99.90
53776;DHT22;44276;49.534;6.378;2022-12-17T14:58:15;-3.80;99.90
53776;DHT22;44276;49.534;6.378;2022-12-17T15:00:50;-4.00;99.90
53776;DHT22;44276;49.534;6.378;2022-12-17T15:03:24;-4.10;99.90
53776;DHT22;44276;49.534;6.378;2022-12-17T15:05:57;-4.20;99.90
53776;DHT22;44276;49.534;6.378;2022-12-17T15:08:31;-4.30;99.90
53776;DHT22;44276;49.534;6.378;2022-12-17T15:11:03;-4.40;99.90
53776;DHT22;44276;49.534;6.378;2022-12-17T15:13:33;-4.60;99.90
53776;DHT22;44276;49.534;6.378;2022-12-17T15:16:01;-4.80;99.90
53776;DHT22;44276;49.534;6.378;2022-12-17T15:18:30;-5.10;99.90
53776;DHT22;44276;49.534;6.378;2022-12-17T15:20:58;-5.20;99.90
53776;DHT22;44276;49.534;6.378;2022-12-17T15:23:26;-5.40;99.90
53776;DHT22;44276;49.534;6.378;2022-12-17T15:25:55;-5.50;99.90
53776;DHT22;44276;49.534;6.378;2022-12-17T15:28:25;-5.60;99.90
53776;DHT22;44276;49.534;6.378;2022-12-17T15:30:55;-5.70;99.90
53776;DHT22;44276;49.534;6.378;2022-12-17T15:33:24;-5.80;99.90
53776;DHT22;44276;49.534;6.378;2022-12-17T15:35:52;-5.90;99.90
53776;DHT22;44276;49.534;6.378;2022-12-17T15:38:20;-5.90;99.90
53776;DHT22;44276;49.534;6.378;2022-12-17T15:40:50;-6.00;99.90
53776;DHT22;44276;49.534;6.378;2022-12-17T15:43:19;-6.20;99.90
53776;DHT22;44276;49.534;6.378;2022-12-17T15:45:49;-6.20;99.90
53776;DHT22;44276;49.534;6.378;2022-12-17T15:48:20;-6.30;99.90
53776;DHT22;44276;49.534;6.378;2022-12-17T15:50:49;-6.40;99.90
53776;DHT22;44276;49.534;6.378;2022-12-17T15:53:17;-6.40;99.90
53776;DHT22;44276;49.534;6.378;2022-12-17T15:55:46;-6.20;99.90
53776;DHT22;44276;49.534;6.378;2022-12-17T15:58:14;-6.20;99.90
53776;DHT22;44276;49.534;6.378;2022-12-17T16:00:44;-6.30;99.90
53776;DHT22;44276;49.534;6.378;2022-12-17T16:03:14;-6.40;99.90
53776;DHT22;44276;49.534;6.378;2022-12-17T16:05:43;-6.40;99.90
53776;DHT22;44276;49.534;6.378;2022-12-17T16:08:11;-6.40;99.90
53776;DHT22;44276;49.534;6.378;2022-12-17T16:10:40;-6.50;99.90
53776;DHT22;44276;49.534;6.378;2022-12-17T16:13:09;-6.70;99.90
53776;DHT22;44276;49.534;6.378;2022-12-17T16:15:42;-6.80;99.90
53776;DHT22;44276;49.534;6.378;2022-12-17T16:18:11;-6.80;99.90
53776;DHT22;44276;49.534;6.378;2022-12-17T16:20:43;-6.90;99.90
53776;DHT22;44276;49.534;6.378;2022-12-17T16:23:11;-6.90;99.90
53776;DHT22;44276;49.534;6.378;2022-12-17T16:25:40;-6.90;99.90
53776;DHT22;44276;49.534;6.378;2022-12-17T16:28:08;-7.00;99.90
53776;DHT22;44276;49.534;6.378;2022-12-17T16:30:36;-7.10;99.90
53776;DHT22;44276;49.534;6.378;2022-12-17T16:33:05;-7.20;99.90
53776;DHT22;44276;49.534;6.378;2022-12-17T16:35:33;-7.00;99.90
53776;DHT22;44276;49.534;6.378;2022-12-17T16:38:03;-6.90;99.90
53776;DHT22;44276;49.534;6.378;2022-12-17T16:40:32;-7.00;99.90
53776;DHT22;44276;49.534;6.378;2022-12-17T16:43:00;-7.20;99.90
53776;DHT22;44276;49.534;6.378;2022-12-17T16:45:29;-7.30;99.90
53776;DHT22;44276;49.534;6.378;2022-12-17T16:47:58;-7.40;99.90
53776;DHT22;44276;49.534;6.378;2022-12-17T16:50:27;-7.50;99.90
53776;DHT22;44276;49.534;6.378;2022-12-17T16:52:56;-7.50;99.90
53776;DHT22;44276;49.534;6.378;2022-12-17T16:55:26;-7.40;99.90
53776;DHT22;44276;49.534;6.378;2022-12-17T16:57:54;-7.40;99.90
53776;DHT22;44276;49.534;6.378;2022-12-17T17:00:23;-7.40;99.90
53776;DHT22;44276;49.534;6.378;2022-12-17T17:02:51;-7.40;99.90
53776;DHT22;44276;49.534;6.378;2022-12-17T17:05:33;-7.40;99.90
53776;DHT22;44276;49.534;6.378;2022-12-17T17:08:03;-7.30;99.90
53776;DHT22;44276;49.534;6.378;2022-12-17T17:11:13;-7.30;99.90
53776;DHT22;44276;49.534;6.378;2022-12-17T17:13:44;-7.40;99.90
53776;DHT22;44276;49.534;6.378;2022-12-17T17:16:16;-7.40;99.90
53776;DHT22;44276;49.534;6.378;2022-12-17T17:18:46;-7.50;99.90
53776;DHT22;44276;49.534;6.378;2022-12-17T17:21:36;-7.50;99.90
53776;DHT22;44276;49.534;6.378;2022-12-17T17:24:10;-7.40;99.90